Time,TemperatureF,DewpointF,PressureIn,WindDirection,WindDirectionDegrees,WindSpeedMPH,WindSpeedGustMPH,Humidity,HourlyPrecipIn,Conditions,Clouds,dailyrainin,SoftwareType,DateUTC
2013-01-07 00:02:00,35.0,20.0,28.58,SE,146,5.0,7.0,54,0.00,,,0.00,,2013-01-07 06:02:00,
2013-01-07 00:12:00,35.0,20.0,28.58,SE,146,5.0,7.0,54,0.00,,,0.00,,2013-01-07 06:12:00,
2013-01-07 00:22:00,35.0,19.0,28.55,SSE,160,6.0,10.0,52,0.00,,,0.00,,2013-01-07 06:22:00,
2013-01-07 00:32:00,35.0,19.0,28.55,SE,135,5.0,9.0,52,0.00,,,0.00,,2013-01-07 06:32:00,
2013-01-07 00:42:00,35.0,19.0,28.55,SE,135,5.0,9.0,52,0.00,,,0.00,,2013-01-07 06:42:00,
2013-01-07 00:52:00,35.0,19.0,28.55,SSE,149,8.0,8.0,52,0.00,,,0.00,,2013-01-07 06:52:00,
2013-01-07 01:02:00,35.0,19.0,28.55,ESE,118,5.0,7.0,52,0.00,,,0.00,,2013-01-07 07:02:00,
2013-01-07 01:12:00,35.0,19.0,28.55,ESE,118,5.0,7.0,52,0.00,,,0.00,,2013-01-07 07:12:00,
2013-01-07 01:22:00,35.0,19.0,28.55,South,172,10.0,10.0,52,0.00,,,0.00,,2013-01-07 07:22:00,
2013-01-07 01:33:00,35.0,19.0,28.55,SSE,149,8.0,8.0,52,0.00,,,0.00,,2013-01-07 07:33:00,
2013-01-07 01:42:00,35.0,19.0,28.55,SSE,149,8.0,8.0,52,0.00,,,0.00,,2013-01-07 07:42:00,
2013-01-07 01:53:00,34.0,18.0,28.55,SE,143,7.0,7.0,52,0.00,,,0.00,,2013-01-07 07:53:00,
2013-01-07 02:02:00,34.0,18.0,28.55,SE,144,5.0,5.0,52,0.00,,,0.00,,2013-01-07 08:02:00,
2013-01-07 02:12:00,34.0,18.0,28.55,SE,144,5.0,5.0,52,0.00,,,0.00,,2013-01-07 08:12:00,
2013-01-07 02:22:00,33.0,18.0,28.55,SE,142,5.0,5.0,53,0.00,,,0.00,,2013-01-07 08:22:00,
2013-01-07 02:32:00,33.0,18.0,28.55,South,191,3.0,5.0,54,0.00,,,0.00,,2013-01-07 08:32:00,
2013-01-07 02:42:00,33.0,18.0,28.55,South,191,3.0,5.0,54,0.00,,,0.00,,2013-01-07 08:42:00,
2013-01-07 02:53:00,35.0,19.0,28.52,SSE,154,5.0,6.0,52,0.00,,,0.00,,2013-01-07 08:53:00,
2013-01-07 03:02:00,35.0,19.0,28.52,South,169,3.0,7.0,51,0.00,,,0.00,,2013-01-07 09:02:00,
2013-01-07 03:12:00,35.0,19.0,28.52,South,169,3.0,7.0,51,0.00,,,0.00,,2013-01-07 09:12:00,
2013-01-07 03:22:00,35.0,19.0,28.52,SSE,164,5.0,7.0,51,0.00,,,0.00,,2013-01-07 09:22:00,
2013-01-07 03:32:00,35.0,19.0,28.52,SSE,154,5.0,5.0,51,0.00,,,0.00,,2013-01-07 09:32:00,
2013-01-07 03:42:00,35.0,19.0,28.52,SSE,154,5.0,5.0,51,0.00,,,0.00,,2013-01-07 09:42:00,
2013-01-07 03:52:00,34.0,18.0,28.52,SE,142,8.0,8.0,52,0.00,,,0.00,,2013-01-07 09:52:00,
2013-01-07 04:02:00,34.0,18.0,28.52,SE,141,5.0,5.0,52,0.00,,,0.00,,2013-01-07 10:02:00,
2013-01-07 04:12:00,34.0,18.0,28.52,SE,137,3.0,7.0,52,0.00,,,0.00,,2013-01-07 10:12:00,
2013-01-07 04:22:00,34.0,18.0,28.52,SE,137,3.0,7.0,52,0.00,,,0.00,,2013-01-07 10:22:00,
2013-01-07 04:32:00,34.0,18.0,28.52,SE,142,4.0,8.0,52,0.00,,,0.00,,2013-01-07 10:32:00,
2013-01-07 04:42:00,34.0,18.0,28.52,SE,142,4.0,8.0,52,0.00,,,0.00,,2013-01-07 10:42:00,
2013-01-07 04:52:00,34.0,18.0,28.52,SSE,151,5.0,7.0,51,0.00,,,0.00,,2013-01-07 10:52:00,
2013-01-07 05:02:00,34.0,18.0,28.52,SSE,155,3.0,5.0,51,0.00,,,0.00,,2013-01-07 11:02:00,
2013-01-07 05:12:00,34.0,18.0,28.52,SSE,155,3.0,5.0,51,0.00,,,0.00,,2013-01-07 11:12:00,
2013-01-07 05:22:00,34.0,18.0,28.52,SSE,164,3.0,7.0,52,0.00,,,0.00,,2013-01-07 11:22:00,
2013-01-07 05:32:00,34.0,18.0,28.49,SE,142,5.0,8.0,52,0.00,,,0.00,,2013-01-07 11:32:00,
2013-01-07 05:43:00,34.0,18.0,28.49,SE,142,5.0,8.0,52,0.00,,,0.00,,2013-01-07 11:43:00,
2013-01-07 05:53:00,34.0,18.0,28.49,SE,138,5.0,7.0,52,0.00,,,0.00,,2013-01-07 11:53:00,
2013-01-07 06:02:00,34.0,18.0,28.49,SE,136,7.0,7.0,52,0.00,,,0.00,,2013-01-07 12:02:00,
2013-01-07 06:12:00,34.0,19.0,28.49,SSE,163,4.0,7.0,53,0.00,,,0.00,,2013-01-07 12:12:00,
2013-01-07 06:22:00,34.0,19.0,28.49,SSE,163,4.0,7.0,53,0.00,,,0.00,,2013-01-07 12:22:00,
2013-01-07 06:32:00,34.0,19.0,28.49,ESE,119,7.0,7.0,53,0.00,,,0.00,,2013-01-07 12:32:00,
2013-01-07 06:43:00,34.0,19.0,28.49,ESE,119,7.0,7.0,53,0.00,,,0.00,,2013-01-07 12:43:00,
2013-01-07 06:53:00,33.0,18.0,28.49,SE,141,7.0,7.0,53,0.00,,,0.00,,2013-01-07 12:53:00,
2013-01-07 07:02:00,33.0,18.0,28.49,SE,146,7.0,7.0,54,0.00,,,0.00,,2013-01-07 13:02:00,
2013-01-07 07:12:00,33.0,18.0,28.49,SE,146,7.0,7.0,54,0.00,,,0.00,,2013-01-07 13:12:00,
2013-01-07 07:23:00,33.0,18.0,28.49,South,191,3.0,5.0,54,0.00,,,0.00,,2013-01-07 13:23:00,
2013-01-07 07:33:00,33.0,18.0,28.49,SSE,147,3.0,3.0,54,0.00,,,0.00,,2013-01-07 13:33:00,
2013-01-07 07:42:00,33.0,18.0,28.49,SSE,147,3.0,3.0,54,0.00,,,0.00,,2013-01-07 13:42:00,
2013-01-07 07:53:00,33.0,19.0,28.49,South,182,5.0,7.0,55,0.00,,,0.00,,2013-01-07 13:53:00,
2013-01-07 08:03:00,34.0,19.0,28.49,SE,135,4.0,7.0,54,0.00,,,0.00,,2013-01-07 14:03:00,
2013-01-07 08:12:00,34.0,19.0,28.49,SSW,201,3.0,8.0,53,0.00,,,0.00,,2013-01-07 14:12:00,
2013-01-07 08:22:00,34.0,19.0,28.49,SSW,201,3.0,8.0,53,0.00,,,0.00,,2013-01-07 14:22:00,
2013-01-07 08:33:00,34.0,19.0,28.49,SSW,201,3.0,8.0,53,0.00,,,0.00,,2013-01-07 14:33:00,
2013-01-07 08:42:00,34.0,19.0,28.49,SSW,201,3.0,8.0,53,0.00,,,0.00,,2013-01-07 14:42:00,
2013-01-07 08:53:00,35.0,20.0,28.49,SSE,150,5.0,7.0,53,0.00,,,0.00,,2013-01-07 14:53:00,
2013-01-07 09:03:00,35.0,19.0,28.46,SE,146,11.0,11.0,52,0.00,,,0.00,,2013-01-07 15:03:00,
2013-01-07 09:12:00,35.0,19.0,28.46,SE,146,11.0,11.0,52,0.00,,,0.00,,2013-01-07 15:12:00,
2013-01-07 09:22:00,36.0,20.0,28.46,SSE,155,2.0,5.0,51,0.00,,,0.00,,2013-01-07 15:22:00,
2013-01-07 09:33:00,37.0,21.0,28.49,SE,128,7.0,7.0,51,0.00,,,0.00,,2013-01-07 15:33:00,
2013-01-07 09:42:00,37.0,21.0,28.49,SE,128,7.0,7.0,51,0.00,,,0.00,,2013-01-07 15:42:00,
2013-01-07 09:53:00,38.0,21.0,28.49,SE,144,7.0,7.0,49,0.00,,,0.00,,2013-01-07 15:53:00,
2013-01-07 10:02:00,40.0,22.0,28.49,SSE,162,4.0,5.0,48,0.00,,,0.00,,2013-01-07 16:02:00,
2013-01-07 10:12:00,40.0,22.0,28.49,SSE,162,4.0,5.0,48,0.00,,,0.00,,2013-01-07 16:12:00,
2013-01-07 10:22:00,41.0,21.0,28.49,SE,142,5.0,5.0,45,0.00,,,0.00,,2013-01-07 16:22:00,
2013-01-07 10:33:00,41.0,21.0,28.49,SE,142,5.0,5.0,45,0.00,,,0.00,,2013-01-07 16:33:00,
2013-01-07 10:43:00,41.0,21.0,28.49,SE,142,5.0,5.0,45,0.00,,,0.00,,2013-01-07 16:43:00,
2013-01-07 10:53:00,44.0,22.0,28.49,SSW,203,3.0,7.0,42,0.00,,,0.00,,2013-01-07 16:53:00,
2013-01-07 11:02:00,45.0,23.0,28.49,SE,140,4.0,4.0,41,0.00,,,0.00,,2013-01-07 17:02:00,
2013-01-07 11:12:00,45.0,23.0,28.49,SE,140,4.0,4.0,41,0.00,,,0.00,,2013-01-07 17:12:00,
2013-01-07 11:23:00,46.0,23.0,28.49,SSW,195,7.0,7.0,40,0.00,,,0.00,,2013-01-07 17:23:00,
2013-01-07 11:33:00,46.0,23.0,28.49,SSE,147,3.0,5.0,40,0.00,,,0.00,,2013-01-07 17:33:00,
2013-01-07 11:42:00,46.0,23.0,28.49,SSE,147,3.0,5.0,40,0.00,,,0.00,,2013-01-07 17:42:00,
2013-01-07 11:53:00,47.0,23.0,28.49,SSW,207,5.0,7.0,38,0.00,,,0.00,,2013-01-07 17:53:00,
2013-01-07 12:02:00,47.0,23.0,28.46,SSW,194,3.0,5.0,38,0.00,,,0.00,,2013-01-07 18:02:00,
2013-01-07 12:12:00,47.0,23.0,28.46,SSW,194,3.0,5.0,38,0.00,,,0.00,,2013-01-07 18:12:00,
2013-01-07 12:23:00,48.0,24.0,28.46,South,181,3.0,8.0,38,0.00,,,0.00,,2013-01-07 18:23:00,
2013-01-07 12:32:00,48.0,24.0,28.46,SSW,194,4.0,5.0,38,0.00,,,0.00,,2013-01-07 18:32:00,
2013-01-07 12:42:00,49.0,24.0,28.43,South,184,5.0,5.0,37,0.00,,,0.00,,2013-01-07 18:42:00,
2013-01-07 12:53:00,49.0,24.0,28.43,South,184,5.0,5.0,37,0.00,,,0.00,,2013-01-07 18:53:00,
2013-01-07 13:03:00,49.0,24.0,28.43,SW,215,5.0,5.0,37,0.00,,,0.00,,2013-01-07 19:03:00,
2013-01-07 13:12:00,49.0,24.0,28.43,SW,215,5.0,5.0,37,0.00,,,0.00,,2013-01-07 19:12:00,
2013-01-07 13:22:00,50.0,25.0,28.43,SW,217,3.0,3.0,37,0.00,,,0.00,,2013-01-07 19:22:00,
2013-01-07 13:33:00,51.0,25.0,28.43,SE,133,5.0,5.0,36,0.00,,,0.00,,2013-01-07 19:33:00,
2013-01-07 13:42:00,51.0,25.0,28.43,SE,133,5.0,5.0,36,0.00,,,0.00,,2013-01-07 19:42:00,
2013-01-07 13:53:00,51.0,26.0,28.40,WSW,245,2.0,5.0,37,0.00,,,0.00,,2013-01-07 19:53:00,
2013-01-07 14:03:00,51.0,25.0,28.40,SSW,192,5.0,7.0,36,0.00,,,0.00,,2013-01-07 20:03:00,
2013-01-07 14:12:00,51.0,25.0,28.40,SSW,192,5.0,7.0,36,0.00,,,0.00,,2013-01-07 20:12:00,
2013-01-07 14:23:00,52.0,26.0,28.40,South,182,7.0,10.0,36,0.00,,,0.00,,2013-01-07 20:23:00,
2013-01-07 14:33:00,52.0,26.0,28.40,South,174,4.0,5.0,36,0.00,,,0.00,,2013-01-07 20:33:00,
2013-01-07 14:42:00,52.0,26.0,28.40,South,174,4.0,5.0,36,0.00,,,0.00,,2013-01-07 20:42:00,
2013-01-07 14:53:00,52.0,26.0,28.40,SSW,206,7.0,7.0,36,0.00,,,0.00,,2013-01-07 20:53:00,
2013-01-07 15:02:00,51.0,25.0,28.40,SW,231,2.0,7.0,36,0.00,,,0.00,,2013-01-07 21:02:00,
2013-01-07 15:12:00,51.0,25.0,28.40,SW,231,2.0,7.0,36,0.00,,,0.00,,2013-01-07 21:12:00,
2013-01-07 15:22:00,51.0,25.0,28.40,SE,144,3.0,4.0,36,0.00,,,0.00,,2013-01-07 21:22:00,
2013-01-07 15:33:00,51.0,25.0,28.37,SE,144,3.0,5.0,36,0.00,,,0.00,,2013-01-07 21:33:00,
2013-01-07 15:42:00,51.0,25.0,28.37,SE,144,3.0,5.0,36,0.00,,,0.00,,2013-01-07 21:42:00,
2013-01-07 15:53:00,52.0,26.0,28.37,South,190,5.0,5.0,36,0.00,,,0.00,,2013-01-07 21:53:00,
2013-01-07 16:02:00,52.0,26.0,28.37,SSE,155,7.0,7.0,36,0.00,,,0.00,,2013-01-07 22:02:00,
2013-01-07 16:12:00,52.0,26.0,28.37,SSE,155,7.0,7.0,36,0.00,,,0.00,,2013-01-07 22:12:00,
2013-01-07 16:22:00,51.0,25.0,28.37,SE,135,5.0,5.0,36,0.00,,,0.00,,2013-01-07 22:22:00,
2013-01-07 16:33:00,50.0,25.0,28.37,SSE,149,4.0,5.0,37,0.00,,,0.00,,2013-01-07 22:33:00,
2013-01-07 16:42:00,50.0,25.0,28.37,SSE,149,4.0,5.0,37,0.00,,,0.00,,2013-01-07 22:42:00,
2013-01-07 16:53:00,48.0,24.0,28.37,South,180,3.0,3.0,38,0.00,,,0.00,,2013-01-07 22:53:00,
2013-01-07 17:02:00,48.0,24.0,28.37,SSE,151,5.0,5.0,38,0.00,,,0.00,,2013-01-07 23:02:00,
2013-01-07 17:12:00,48.0,24.0,28.37,SSE,151,5.0,5.0,38,0.00,,,0.00,,2013-01-07 23:12:00,
2013-01-07 17:22:00,47.0,23.0,28.37,SE,134,2.0,2.0,39,0.00,,,0.00,,2013-01-07 23:22:00,
2013-01-07 17:32:00,47.0,23.0,28.37,SSE,156,2.0,2.0,39,0.00,,,0.00,,2013-01-07 23:32:00,
2013-01-07 17:42:00,47.0,23.0,28.37,SSE,156,2.0,2.0,39,0.00,,,0.00,,2013-01-07 23:42:00,
2013-01-07 17:53:00,46.0,23.0,28.37,SSE,155,3.0,3.0,40,0.00,,,0.00,,2013-01-07 23:53:00,
2013-01-07 18:02:00,45.0,23.0,28.37,SE,146,0.0,3.0,41,0.00,,,0.00,,2013-01-08 00:02:00,
2013-01-07 18:12:00,45.0,23.0,28.37,SE,146,0.0,3.0,41,0.00,,,0.00,,2013-01-08 00:12:00,
2013-01-07 18:22:00,44.0,22.0,28.37,SE,146,0.0,0.0,42,0.00,,,0.00,,2013-01-08 00:22:00,
2013-01-07 18:32:00,43.0,22.0,28.37,SE,146,2.0,3.0,43,0.00,,,0.00,,2013-01-08 00:32:00,
2013-01-07 18:42:00,43.0,22.0,28.37,SE,146,2.0,3.0,43,0.00,,,0.00,,2013-01-08 00:42:00,
2013-01-07 18:53:00,42.0,22.0,28.37,SE,143,3.0,5.0,45,0.00,,,0.00,,2013-01-08 00:53:00,
2013-01-07 19:02:00,41.0,22.0,28.37,SE,146,4.0,4.0,46,0.00,,,0.00,,2013-01-08 01:02:00,
2013-01-07 19:12:00,41.0,22.0,28.37,SE,146,4.0,4.0,46,0.00,,,0.00,,2013-01-08 01:12:00,
2013-01-07 19:22:00,41.0,23.0,28.37,SE,142,3.0,5.0,48,0.00,,,0.00,,2013-01-08 01:22:00,
2013-01-07 19:32:00,41.0,23.0,28.37,SE,138,5.0,5.0,48,0.00,,,0.00,,2013-01-08 01:32:00,
2013-01-07 19:42:00,41.0,23.0,28.37,SE,138,5.0,5.0,48,0.00,,,0.00,,2013-01-08 01:42:00,
2013-01-07 19:52:00,40.0,22.0,28.37,SE,137,5.0,5.0,49,0.00,,,0.00,,2013-01-08 01:52:00,
2013-01-07 20:02:00,40.0,22.0,28.34,SE,133,5.0,5.0,49,0.00,,,0.00,,2013-01-08 02:02:00,
2013-01-07 20:12:00,40.0,22.0,28.34,SE,133,5.0,5.0,49,0.00,,,0.00,,2013-01-08 02:12:00,
2013-01-07 20:22:00,41.0,23.0,28.34,South,184,5.0,5.0,48,0.00,,,0.00,,2013-01-08 02:22:00,
2013-01-07 20:32:00,41.0,22.0,28.34,SE,138,3.0,5.0,46,0.00,,,0.00,,2013-01-08 02:32:00,
2013-01-07 20:42:00,41.0,22.0,28.34,SE,138,3.0,5.0,46,0.00,,,0.00,,2013-01-08 02:42:00,
2013-01-07 20:53:00,42.0,22.0,28.34,SSE,154,3.0,4.0,45,0.00,,,0.00,,2013-01-08 02:53:00,
2013-01-07 21:03:00,42.0,22.0,28.37,SSW,192,3.0,3.0,45,0.00,,,0.00,,2013-01-08 03:03:00,
2013-01-07 21:12:00,42.0,22.0,28.37,SSW,192,3.0,3.0,45,0.00,,,0.00,,2013-01-08 03:12:00,
2013-01-07 21:22:00,41.0,21.0,28.37,SSE,158,5.0,5.0,45,0.00,,,0.00,,2013-01-08 03:22:00,
2013-01-07 21:32:00,41.0,21.0,28.37,SE,142,4.0,5.0,45,0.00,,,0.00,,2013-01-08 03:32:00,
2013-01-07 21:42:00,41.0,21.0,28.37,SE,142,4.0,5.0,45,0.00,,,0.00,,2013-01-08 03:42:00,
2013-01-07 21:53:00,41.0,22.0,28.37,SE,138,5.0,5.0,47,0.00,,,0.00,,2013-01-08 03:53:00,
2013-01-07 22:02:00,41.0,23.0,28.34,SSE,163,5.0,7.0,48,0.00,,,0.00,,2013-01-08 04:02:00,
2013-01-07 22:12:00,41.0,23.0,28.34,SSE,163,5.0,7.0,48,0.00,,,0.00,,2013-01-08 04:12:00,
2013-01-07 22:22:00,40.0,22.0,28.34,SSE,151,5.0,5.0,49,0.00,,,0.00,,2013-01-08 04:22:00,
2013-01-07 22:32:00,40.0,22.0,28.34,South,171,5.0,5.0,49,0.00,,,0.00,,2013-01-08 04:32:00,
2013-01-07 22:42:00,40.0,22.0,28.34,South,171,5.0,5.0,49,0.00,,,0.00,,2013-01-08 04:42:00,
2013-01-07 22:52:00,39.0,22.0,28.34,South,173,3.0,5.0,50,0.00,,,0.00,,2013-01-08 04:52:00,
2013-01-07 23:03:00,39.0,22.0,28.34,SSE,157,5.0,6.0,50,0.00,,,0.00,,2013-01-08 05:03:00,
2013-01-07 23:12:00,39.0,22.0,28.34,SSE,157,5.0,6.0,50,0.00,,,0.00,,2013-01-08 05:12:00,
2013-01-07 23:22:00,39.0,22.0,28.34,SE,127,5.0,7.0,51,0.00,,,0.00,,2013-01-08 05:22:00,
2013-01-07 23:33:00,39.0,22.0,28.34,SE,140,3.0,7.0,51,0.00,,,0.00,,2013-01-08 05:33:00,
2013-01-07 23:42:00,39.0,22.0,28.34,SE,140,3.0,7.0,51,0.00,,,0.00,,2013-01-08 05:42:00,
2013-01-07 23:53:00,39.0,22.0,28.34,SSE,152,3.0,4.0,51,0.00,,,0.00,,2013-01-08 05:53:00,